createdAt,value
2023-03-20T00:04:31.484Z,8.44
2023-03-20T00:09:28.340Z,8.52
2023-03-20T00:14:25.210Z,8.50
2023-03-20T00:19:24.443Z,8.57
2023-03-20T00:24:21.578Z,8.51
2023-03-20T00:29:23.254Z,8.58
2023-03-20T00:34:23.605Z,8.49
2023-03-20T00:39:20.430Z,8.39
2023-03-20T00:44:25.796Z,8.40
2023-03-20T00:49:27.907Z,8.39
2023-03-20T00:54:24.719Z,8.35
2023-03-20T00:59:25.565Z,8.33
2023-03-20T01:04:22.397Z,8.21
2023-03-20T01:09:18.774Z,8.38
2023-03-20T01:14:16.056Z,8.28
2023-03-20T01:19:14.014Z,8.40
2023-03-20T01:24:10.467Z,8.43
2023-03-20T01:29:21.418Z,8.40
2023-03-20T01:34:36.468Z,8.42
2023-03-20T01:39:36.342Z,8.28
2023-03-20T01:44:34.678Z,8.25
2023-03-20T01:50:08.609Z,8.31
2023-03-20T01:55:05.293Z,8.22
2023-03-20T02:00:10.229Z,8.18
2023-03-20T02:05:15.760Z,8.21
2023-03-20T02:10:16.343Z,8.08
2023-03-20T02:15:15.934Z,8.05
2023-03-20T02:20:45.082Z,7.86
2023-03-20T02:25:51.857Z,7.78
2023-03-20T02:31:01.903Z,7.66
2023-03-20T02:36:25.467Z,7.47
2023-03-20T02:41:45.791Z,7.53
2023-03-20T02:47:21.646Z,7.40
2023-03-20T02:52:43.874Z,7.37
2023-03-20T02:57:58.332Z,7.22
2023-03-20T03:03:18.885Z,7.21
2023-03-20T03:08:20.541Z,7.08
2023-03-20T03:13:21.805Z,7.12
2023-03-20T03:18:22.494Z,7.01
2023-03-20T03:23:26.806Z,7.06
2023-03-20T03:28:31.582Z,7.08
2023-03-20T03:33:33.618Z,6.94
2023-03-20T03:38:35.741Z,6.97
2023-03-20T03:43:40.054Z,7.16
2023-03-20T03:48:47.520Z,7.07
2023-03-20T03:53:58.006Z,7.03
2023-03-20T03:59:04.219Z,7.00
2023-03-20T04:04:04.921Z,7.02
2023-03-20T04:09:01.520Z,7.02
2023-03-20T04:13:57.950Z,6.98
2023-03-20T04:18:56.108Z,6.98
2023-03-20T04:23:52.541Z,6.97
2023-03-20T04:28:49.023Z,6.87
2023-03-20T04:33:45.974Z,7.01
2023-03-20T04:38:42.478Z,6.98
2023-03-20T04:43:40.256Z,7.01
2023-03-20T04:48:36.672Z,6.95
2023-03-20T04:53:33.114Z,7.10
2023-03-20T04:58:29.627Z,7.07
2023-03-20T05:03:27.666Z,7.12
2023-03-20T05:08:24.124Z,6.99
2023-03-20T05:13:20.605Z,7.04
2023-03-20T05:18:17.096Z,7.11
2023-03-20T05:23:13.514Z,7.01
2023-03-20T05:28:10.130Z,6.94
2023-03-20T05:33:08.045Z,6.83
2023-03-20T05:38:04.562Z,6.85
2023-03-20T05:43:01.082Z,6.85
2023-03-20T05:47:57.502Z,6.86
2023-03-20T05:52:53.944Z,6.82
2023-03-20T05:57:50.368Z,6.87
2023-03-20T06:02:47.674Z,6.87
2023-03-20T06:07:44.347Z,6.95
2023-03-20T06:12:40.765Z,7.01
2023-03-20T06:17:37.208Z,6.95
2023-03-20T06:22:33.677Z,6.94
2023-03-20T06:27:31.250Z,7.06
2023-03-20T06:32:27.706Z,7.06
2023-03-20T06:37:24.434Z,7.06
2023-03-20T06:42:21.020Z,7.13
2023-03-20T06:47:17.557Z,7.20
2023-03-20T06:52:19.452Z,7.19
2023-03-20T06:57:17.638Z,7.25
2023-03-20T07:02:14.099Z,7.23
2023-03-20T07:07:10.885Z,7.22
2023-03-20T07:12:14.379Z,7.32
2023-03-20T07:17:11.612Z,7.34
2023-03-20T07:22:15.404Z,7.27
2023-03-20T07:27:12.291Z,7.29
2023-03-20T07:32:08.767Z,7.38
2023-03-20T07:37:05.629Z,7.40
2023-03-20T07:42:02.205Z,7.47
2023-03-20T07:46:58.648Z,7.36
2023-03-20T07:51:55.136Z,7.43
2023-03-20T07:56:51.740Z,7.62
2023-03-20T08:01:48.173Z,7.63
2023-03-20T08:06:44.724Z,7.69
2023-03-20T08:11:41.132Z,7.82
2023-03-20T08:16:37.794Z,7.86
2023-03-20T08:21:34.295Z,7.75
2023-03-20T08:26:31.021Z,7.79
2023-03-20T08:31:27.656Z,7.70
2023-03-20T08:36:24.597Z,7.70
2023-03-20T08:41:21.002Z,7.72
2023-03-20T08:46:17.435Z,7.64
2023-03-20T08:51:13.889Z,7.76
2023-03-20T08:56:10.319Z,7.85
2023-03-20T09:01:08.398Z,7.88
2023-03-20T09:06:07.444Z,7.84
2023-03-20T09:11:05.088Z,7.94
2023-03-20T09:16:01.492Z,7.90
2023-03-20T09:20:58.366Z,7.80
2023-03-20T09:25:54.928Z,7.97
2023-03-20T09:30:56.188Z,8.04
2023-03-20T09:35:52.763Z,8.05
2023-03-20T09:41:03.930Z,8.10
2023-03-20T09:46:23.411Z,8.31
2023-03-20T09:51:36.358Z,8.34
2023-03-20T09:56:33.458Z,8.42
2023-03-20T10:01:47.458Z,8.13
2023-03-20T10:06:46.412Z,8.34
2023-03-20T10:12:21.038Z,8.26
2023-03-20T10:17:41.885Z,8.10
2023-03-20T10:22:44.776Z,8.08
2023-03-20T10:27:51.901Z,8.25
2023-03-20T10:32:54.357Z,8.34
2023-03-20T10:37:56.410Z,8.10
2023-03-20T10:42:59.064Z,8.25
2023-03-20T10:47:58.646Z,8.34
2023-03-20T10:52:57.016Z,8.21
2023-03-20T10:58:08.963Z,8.40
2023-03-20T11:03:06.540Z,8.80
2023-03-20T11:08:11.717Z,8.74
2023-03-20T11:13:29.615Z,8.50
2023-03-20T11:18:26.342Z,8.54
2023-03-20T11:23:33.435Z,8.70
2023-03-20T11:28:47.560Z,8.63
2023-03-20T11:33:51.446Z,8.56
2023-03-20T11:38:50.502Z,8.67
2023-03-20T11:43:46.927Z,8.51
2023-03-20T11:48:48.120Z,8.55
2023-03-20T11:53:48.242Z,8.56
2023-03-20T11:59:11.751Z,8.61
2023-03-20T12:04:11.135Z,8.66
2023-03-20T12:09:36.446Z,8.63
2023-03-20T12:14:54.821Z,8.57
2023-03-20T12:19:54.794Z,8.71
2023-03-20T12:25:02.546Z,8.74
2023-03-20T12:30:04.798Z,8.85
2023-03-20T12:35:10.369Z,8.90
2023-03-20T12:40:15.539Z,8.95
2023-03-20T12:45:30.876Z,9.10
2023-03-20T12:50:39.973Z,9.47
2023-03-20T12:55:48.580Z,9.87
2023-03-20T13:00:53.765Z,10.70
2023-03-20T13:06:04.222Z,10.55
2023-03-20T13:11:26.084Z,10.17
2023-03-20T13:17:01.067Z,9.95
2023-03-20T13:22:14.640Z,9.76
2023-03-20T13:27:16.778Z,9.57
2023-03-20T13:32:25.896Z,9.50
2023-03-20T13:37:56.781Z,9.38
2023-03-20T13:43:26.339Z,9.33
2023-03-20T13:48:40.262Z,9.32
2023-03-20T13:53:46.244Z,9.29
2023-03-20T13:58:56.279Z,9.34
2023-03-20T14:03:54.094Z,9.26
2023-03-20T14:08:54.459Z,9.18
2023-03-20T14:13:55.514Z,9.22
2023-03-20T14:19:06.511Z,9.30
2023-03-20T14:24:15.536Z,9.25
2023-03-20T14:29:11.941Z,9.22
2023-03-20T14:34:11.634Z,9.12
2023-03-20T14:39:20.923Z,9.15
2023-03-20T14:44:38.435Z,9.10
2023-03-20T14:49:48.781Z,9.05
2023-03-20T14:54:55.122Z,8.99
2023-03-20T14:59:51.523Z,9.02
2023-03-20T15:04:48.497Z,9.03
2023-03-20T15:09:47.804Z,8.88
2023-03-20T15:14:51.165Z,8.79
2023-03-20T15:19:50.006Z,8.66
2023-03-20T15:24:55.654Z,8.62
2023-03-20T15:29:54.662Z,8.57
2023-03-20T15:34:51.147Z,8.68
2023-03-20T15:39:51.480Z,8.78
2023-03-20T15:44:50.099Z,8.83
2023-03-20T15:49:53.272Z,8.86
2023-03-20T15:54:49.979Z,8.78
2023-03-20T15:59:46.599Z,8.61
2023-03-20T16:04:47.973Z,8.46
2023-03-20T16:09:44.512Z,8.42
2023-03-20T16:14:41.406Z,8.34
2023-03-20T16:19:39.029Z,8.38
2023-03-20T16:24:38.645Z,8.43
2023-03-20T16:29:36.966Z,8.30
2023-03-20T16:34:36.181Z,8.33
2023-03-20T16:39:33.106Z,8.18
2023-03-20T16:44:35.330Z,8.40
2023-03-20T16:49:54.187Z,8.25
2023-03-20T16:54:50.998Z,8.28
2023-03-20T16:59:47.758Z,8.29
2023-03-20T17:04:47.543Z,8.29
2023-03-20T17:10:16.634Z,8.19
2023-03-20T17:15:18.713Z,8.33
2023-03-20T17:20:42.583Z,8.28
2023-03-20T17:25:39.230Z,8.40
2023-03-20T17:30:36.149Z,8.50
2023-03-20T17:35:32.793Z,8.18
2023-03-20T17:40:30.815Z,8.12
2023-03-20T17:45:27.693Z,8.09
2023-03-20T17:50:26.825Z,8.11
2023-03-20T17:55:23.242Z,8.05
2023-03-20T18:00:23.037Z,8.03
2023-03-20T18:05:19.900Z,7.87
2023-03-20T18:10:25.244Z,7.62
2023-03-20T18:15:21.693Z,7.62
2023-03-20T18:20:30.996Z,7.78
2023-03-20T18:25:28.393Z,7.73
2023-03-20T18:30:29.914Z,7.79
2023-03-20T18:35:26.607Z,7.79
2023-03-20T18:40:32.442Z,7.69
2023-03-20T18:45:30.790Z,7.72
2023-03-20T18:50:37.755Z,7.72
2023-03-20T18:55:36.086Z,7.72
2023-03-20T19:00:40.505Z,7.70
2023-03-20T19:05:37.526Z,7.73
2023-03-20T19:10:36.504Z,7.72
2023-03-20T19:15:36.482Z,7.66
2023-03-20T19:20:38.934Z,7.72
2023-03-20T19:25:37.532Z,7.69
2023-03-20T19:30:39.320Z,7.58
2023-03-20T19:35:58.875Z,7.62
2023-03-20T19:40:53.612Z,7.51
2023-03-20T19:45:56.469Z,7.61
2023-03-20T19:50:57.071Z,7.47
2023-03-20T19:55:54.636Z,7.49
2023-03-20T20:00:59.751Z,7.44
2023-03-20T20:05:56.755Z,7.38
2023-03-20T20:10:54.143Z,7.39
2023-03-20T20:15:51.134Z,7.33
2023-03-20T20:21:28.816Z,7.32
2023-03-20T20:26:09.411Z,7.37
2023-03-20T20:31:08.388Z,7.37
2023-03-20T20:36:57.652Z,7.41
2023-03-20T20:41:29.465Z,7.43
2023-03-20T20:46:26.438Z,7.48
2023-03-20T20:51:23.110Z,7.38
2023-03-20T20:56:19.573Z,7.33
2023-03-20T21:01:16.105Z,7.30
2023-03-20T21:06:13.234Z,7.20
2023-03-20T21:11:12.966Z,7.20
2023-03-20T21:16:09.493Z,7.10
2023-03-20T21:21:11.209Z,7.19
2023-03-20T21:26:09.434Z,7.12
2023-03-20T21:31:23.896Z,7.11
2023-03-20T21:36:23.394Z,7.14
2023-03-20T21:41:20.300Z,7.14
2023-03-20T21:57:42.694Z,7.07
2023-03-20T22:02:16.838Z,7.05
2023-03-20T22:18:28.746Z,6.95
2023-03-20T22:34:24.138Z,6.79
2023-03-20T22:49:31.034Z,6.84
2023-03-20T22:54:27.440Z,6.85
2023-03-20T22:59:23.884Z,6.90
2023-03-20T23:04:20.693Z,7.00
2023-03-20T23:09:17.212Z,6.99
2023-03-20T23:14:21.341Z,7.04
2023-03-20T23:19:18.313Z,7.11
2023-03-20T23:24:14.776Z,7.10
2023-03-20T23:29:11.572Z,6.98
2023-03-20T23:34:08.021Z,6.93
2023-03-20T23:39:06.109Z,6.90
2023-03-20T23:44:03.101Z,6.85
2023-03-20T23:48:59.621Z,6.89
2023-03-20T23:53:57.384Z,6.90
2023-03-20T23:58:59.586Z,6.93
